sensor_id;sensor_type;location;lat;lon;timestamp;pressure;altitude;pressure_sealevel;temperature;humidity
66021;BME280;52789;59.980;30.346;2023-04-02T00:02:45;101305.94;;;-2.13;96.08
66021;BME280;52789;59.980;30.346;2023-04-02T00:07:50;101310.25;;;-2.12;97.12
66021;BME280;52789;59.980;30.346;2023-04-02T00:10:29;101308.63;;;-2.14;97.71
66021;BME280;52789;59.980;30.346;2023-04-02T00:15:27;101315.09;;;-2.23;98.96
66021;BME280;52789;59.980;30.346;2023-04-02T00:17:52;101315.94;;;-2.23;99.00
66021;BME280;52789;59.980;30.346;2023-04-02T00:20:18;101309.03;;;-2.24;99.49
66021;BME280;52789;59.980;30.346;2023-04-02T00:22:44;101321.09;;;-2.21;98.77
66021;BME280;52789;59.980;30.346;2023-04-02T00:25:11;101327.16;;;-2.21;98.81
66021;BME280;52789;59.980;30.346;2023-04-02T00:27:38;101321.09;;;-2.21;99.15
66021;BME280;52789;59.980;30.346;2023-04-02T00:30:04;101328.22;;;-2.25;100.00
66021;BME280;52789;59.980;30.346;2023-04-02T00:32:30;101333.56;;;-2.28;100.00
66021;BME280;52789;59.980;30.346;2023-04-02T00:34:56;101333.38;;;-2.23;100.00
66021;BME280;52789;59.980;30.346;2023-04-02T00:37:23;101354.16;;;-2.22;100.00
66021;BME280;52789;59.980;30.346;2023-04-02T00:39:54;101333.44;;;-2.25;100.00
66021;BME280;52789;59.980;30.346;2023-04-02T00:42:22;101341.41;;;-2.28;100.00
66021;BME280;52789;59.980;30.346;2023-04-02T00:44:49;101341.47;;;-2.29;100.00
66021;BME280;52789;59.980;30.346;2023-04-02T00:47:25;101345.84;;;-2.30;100.00
66021;BME280;52789;59.980;30.346;2023-04-02T00:49:58;101359.53;;;-2.25;100.00
66021;BME280;52789;59.980;30.346;2023-04-02T00:52:27;101357.97;;;-2.29;100.00
66021;BME280;52789;59.980;30.346;2023-04-02T00:55:07;101357.81;;;-2.26;100.00
66021;BME280;52789;59.980;30.346;2023-04-02T00:57:34;101364.75;;;-2.25;100.00
66021;BME280;52789;59.980;30.346;2023-04-02T01:02:40;101361.59;;;-2.33;100.00
66021;BME280;52789;59.980;30.346;2023-04-02T01:10:20;101374.69;;;-2.34;100.00
66021;BME280;52789;59.980;30.346;2023-04-02T01:13:07;101370.53;;;-2.38;100.00
66021;BME280;52789;59.980;30.346;2023-04-02T01:15:37;101378.34;;;-2.38;100.00
66021;BME280;52789;59.980;30.346;2023-04-02T01:21:06;101379.47;;;-2.44;100.00
66021;BME280;52789;59.980;30.346;2023-04-02T01:23:36;101382.94;;;-2.43;100.00
66021;BME280;52789;59.980;30.346;2023-04-02T01:26:05;101389.00;;;-2.43;100.00
66021;BME280;52789;59.980;30.346;2023-04-02T01:31:15;101389.91;;;-2.44;100.00
66021;BME280;52789;59.980;30.346;2023-04-02T01:33:41;101392.50;;;-2.44;100.00
66021;BME280;52789;59.980;30.346;2023-04-02T01:36:18;101385.59;;;-2.45;100.00
66021;BME280;52789;59.980;30.346;2023-04-02T01:38:50;101396.16;;;-2.48;100.00
66021;BME280;52789;59.980;30.346;2023-04-02T01:41:24;101402.28;;;-2.49;100.00
66021;BME280;52789;59.980;30.346;2023-04-02T01:43:54;101414.47;;;-2.50;100.00
66021;BME280;52789;59.980;30.346;2023-04-02T01:46:33;101408.56;;;-2.53;100.00
66021;BME280;52789;59.980;30.346;2023-04-02T01:49:03;101404.25;;;-2.54;100.00
66021;BME280;52789;59.980;30.346;2023-04-02T01:51:34;101412.13;;;-2.56;100.00
66021;BME280;52789;59.980;30.346;2023-04-02T01:54:01;101416.50;;;-2.56;100.00
66021;BME280;52789;59.980;30.346;2023-04-02T01:56:27;101420.03;;;-2.57;100.00
66021;BME280;52789;59.980;30.346;2023-04-02T01:58:53;101418.34;;;-2.58;100.00
66021;BME280;52789;59.980;30.346;2023-04-02T02:01:19;101422.75;;;-2.60;100.00
66021;BME280;52789;59.980;30.346;2023-04-02T02:03:47;101431.44;;;-2.60;100.00
66021;BME280;52789;59.980;30.346;2023-04-02T02:06:14;101436.59;;;-2.58;100.00
66021;BME280;52789;59.980;30.346;2023-04-02T02:09:02;101438.44;;;-2.62;100.00
66021;BME280;52789;59.980;30.346;2023-04-02T02:11:29;101435.13;;;-2.65;100.00
66021;BME280;52789;59.980;30.346;2023-04-02T02:16:23;101442.34;;;-2.72;100.00
66021;BME280;52789;59.980;30.346;2023-04-02T02:18:52;101445.00;;;-2.73;100.00
66021;BME280;52789;59.980;30.346;2023-04-02T02:22:02;101442.59;;;-2.78;100.00
66021;BME280;52789;59.980;30.346;2023-04-02T02:24:21;101453.28;;;-2.84;100.00
66021;BME280;52789;59.980;30.346;2023-04-02T02:26:48;101460.19;;;-2.83;100.00
66021;BME280;52789;59.980;30.346;2023-04-02T02:29:16;101460.13;;;-2.82;100.00
66021;BME280;52789;59.980;30.346;2023-04-02T02:31:42;101460.31;;;-2.86;100.00
66021;BME280;52789;59.980;30.346;2023-04-02T02:34:14;101462.13;;;-2.88;100.00
66021;BME280;52789;59.980;30.346;2023-04-02T02:36:50;101469.97;;;-2.90;100.00
66021;BME280;52789;59.980;30.346;2023-04-02T02:39:19;101481.31;;;-2.91;100.00
66021;BME280;52789;59.980;30.346;2023-04-02T02:44:16;101493.53;;;-2.93;100.00
66021;BME280;52789;59.980;30.346;2023-04-02T02:46:53;101489.97;;;-2.90;100.00
66021;BME280;52789;59.980;30.346;2023-04-02T02:49:22;101484.03;;;-2.94;100.00
66021;BME280;52789;59.980;30.346;2023-04-02T02:51:52;101487.50;;;-2.93;100.00
66021;BME280;52789;59.980;30.346;2023-04-02T02:54:21;101496.16;;;-2.93;100.00
66021;BME280;52789;59.980;30.346;2023-04-02T02:56:48;101491.00;;;-2.94;100.00
66021;BME280;52789;59.980;30.346;2023-04-02T02:59:14;101494.47;;;-2.94;100.00
66021;BME280;52789;59.980;30.346;2023-04-02T03:01:41;101487.44;;;-2.92;100.00
66021;BME280;52789;59.980;30.346;2023-04-02T03:04:07;101496.28;;;-2.96;100.00
66021;BME280;52789;59.980;30.346;2023-04-02T03:06:32;101500.56;;;-2.95;100.00
66021;BME280;52789;59.980;30.346;2023-04-02T03:14:02;101502.34;;;-2.95;100.00
66021;BME280;52789;59.980;30.346;2023-04-02T03:16:33;101505.91;;;-2.98;100.00
66021;BME280;52789;59.980;30.346;2023-04-02T03:21:38;101513.59;;;-2.95;100.00
66021;BME280;52789;59.980;30.346;2023-04-02T03:24:11;101512.09;;;-3.00;100.00
66021;BME280;52789;59.980;30.346;2023-04-02T03:26:47;101525.06;;;-2.99;100.00
66021;BME280;52789;59.980;30.346;2023-04-02T03:31:41;101523.44;;;-3.01;100.00
66021;BME280;52789;59.980;30.346;2023-04-02T03:34:12;101527.66;;;-2.99;100.00
66021;BME280;52789;59.980;30.346;2023-04-02T03:36:53;101524.28;;;-3.01;100.00
66021;BME280;52789;59.980;30.346;2023-04-02T03:39:24;101534.75;;;-3.02;100.00
66021;BME280;52789;59.980;30.346;2023-04-02T03:47:02;101544.56;;;-3.09;100.00
66021;BME280;52789;59.980;30.346;2023-04-02T03:49:33;101541.06;;;-3.08;100.00
66021;BME280;52789;59.980;30.346;2023-04-02T03:52:03;101544.44;;;-3.06;100.00
66021;BME280;52789;59.980;30.346;2023-04-02T03:54:29;101551.31;;;-3.03;100.00
66021;BME280;52789;59.980;30.346;2023-04-02T03:56:55;101555.66;;;-3.04;100.00
66021;BME280;52789;59.980;30.346;2023-04-02T03:59:25;101565.13;;;-3.01;100.00
66021;BME280;52789;59.980;30.346;2023-04-02T04:01:54;101567.66;;;-3.00;100.00
66021;BME280;52789;59.980;30.346;2023-04-02T04:04:21;101571.91;;;-2.97;100.00
66021;BME280;52789;59.980;30.346;2023-04-02T04:06:48;101573.56;;;-2.95;100.00
66021;BME280;52789;59.980;30.346;2023-04-02T04:09:49;101574.53;;;-2.97;100.00
66021;BME280;52789;59.980;30.346;2023-04-02T04:14:43;101583.66;;;-2.86;100.00
66021;BME280;52789;59.980;30.346;2023-04-02T04:17:21;101581.91;;;-2.85;100.00
66021;BME280;52789;59.980;30.346;2023-04-02T04:19:58;101582.63;;;-2.82;100.00
66021;BME280;52789;59.980;30.346;2023-04-02T04:22:26;101587.78;;;-2.80;100.00
66021;BME280;52789;59.980;30.346;2023-04-02T04:24:56;101585.91;;;-2.76;100.00
66021;BME280;52789;59.980;30.346;2023-04-02T04:27:26;101585.78;;;-2.73;100.00
66021;BME280;52789;59.980;30.346;2023-04-02T04:30:20;101591.84;;;-2.73;100.00
66021;BME280;52789;59.980;30.346;2023-04-02T04:32:59;101599.69;;;-2.73;100.00
66021;BME280;52789;59.980;30.346;2023-04-02T04:37:57;101604.72;;;-2.68;100.00
66021;BME280;52789;59.980;30.346;2023-04-02T04:40:29;101609.09;;;-2.69;100.00
66021;BME280;52789;59.980;30.346;2023-04-02T04:42:58;101610.00;;;-2.70;100.00
66021;BME280;52789;59.980;30.346;2023-04-02T04:47:56;101603.75;;;-2.66;100.00
66021;BME280;52789;59.980;30.346;2023-04-02T04:50:27;101608.97;;;-2.66;100.00
66021;BME280;52789;59.980;30.346;2023-04-02T04:52:54;101608.13;;;-2.66;100.00
66021;BME280;52789;59.980;30.346;2023-04-02T04:57:48;101614.00;;;-2.61;100.00
66021;BME280;52789;59.980;30.346;2023-04-02T05:00:16;101613.13;;;-2.60;100.00
66021;BME280;52789;59.980;30.346;2023-04-02T05:05:20;101618.91;;;-2.52;100.00
66021;BME280;52789;59.980;30.346;2023-04-02T05:07:49;101619.75;;;-2.52;100.00
66021;BME280;52789;59.980;30.346;2023-04-02T05:10:58;101615.19;;;-2.46;100.00
66021;BME280;52789;59.980;30.346;2023-04-02T05:13:06;101627.28;;;-2.44;100.00
66021;BME280;52789;59.980;30.346;2023-04-02T05:15:47;101627.28;;;-2.44;100.00
66021;BME280;52789;59.980;30.346;2023-04-02T05:21:05;101625.94;;;-2.32;100.00
66021;BME280;52789;59.980;30.346;2023-04-02T05:23:46;101624.81;;;-2.25;100.00
66021;BME280;52789;59.980;30.346;2023-04-02T05:31:21;101646.41;;;-2.22;100.00
66021;BME280;52789;59.980;30.346;2023-04-02T05:33:50;101660.25;;;-2.20;100.00
66021;BME280;52789;59.980;30.346;2023-04-02T05:36:20;101648.84;;;-2.17;100.00
66021;BME280;52789;59.980;30.346;2023-04-02T05:38:47;101659.16;;;-2.14;100.00
66021;BME280;52789;59.980;30.346;2023-04-02T05:41:29;101657.34;;;-2.12;100.00
66021;BME280;52789;59.980;30.346;2023-04-02T05:44:06;101657.34;;;-2.12;100.00
66021;BME280;52789;59.980;30.346;2023-04-02T05:46:40;101656.25;;;-2.06;100.00
66021;BME280;52789;59.980;30.346;2023-04-02T05:49:08;101666.47;;;-2.00;100.00
66021;BME280;52789;59.980;30.346;2023-04-02T05:51:41;101666.28;;;-1.96;100.00
66021;BME280;52789;59.980;30.346;2023-04-02T05:54:15;101672.28;;;-1.94;99.71
66021;BME280;52789;59.980;30.346;2023-04-02T05:56:42;101688.00;;;-1.95;99.34
66021;BME280;52789;59.980;30.346;2023-04-02T05:59:13;101675.22;;;-2.01;99.37
66021;BME280;52789;59.980;30.346;2023-04-02T06:01:45;101677.69;;;-1.98;99.51
66021;BME280;52789;59.980;30.346;2023-04-02T06:06:43;101684.56;;;-1.96;98.98
66021;BME280;52789;59.980;30.346;2023-04-02T06:09:12;101691.41;;;-1.93;98.91
66021;BME280;52789;59.980;30.346;2023-04-02T06:11:41;101681.75;;;-1.91;99.24
66021;BME280;52789;59.980;30.346;2023-04-02T06:14:12;101686.72;;;-1.85;98.61
66021;BME280;52789;59.980;30.346;2023-04-02T06:16:38;101690.63;;;-1.73;98.63
66021;BME280;52789;59.980;30.346;2023-04-02T06:19:05;101689.16;;;-1.59;98.07
66021;BME280;52789;59.980;30.346;2023-04-02T06:21:34;101703.59;;;-1.50;97.56
66021;BME280;52789;59.980;30.346;2023-04-02T06:24:00;101703.47;;;-1.47;96.30
66021;BME280;52789;59.980;30.346;2023-04-02T06:31:38;101704.22;;;-1.43;95.82
66021;BME280;52789;59.980;30.346;2023-04-02T06:34:10;101703.81;;;-1.34;95.97
66021;BME280;52789;59.980;30.346;2023-04-02T06:36:38;101710.34;;;-1.24;95.44
66021;BME280;52789;59.980;30.346;2023-04-02T06:39:06;101710.84;;;-1.14;95.06
66021;BME280;52789;59.980;30.346;2023-04-02T06:41:33;101713.38;;;-1.13;94.39
66021;BME280;52789;59.980;30.346;2023-04-02T06:44:03;101718.72;;;-1.16;94.06
66021;BME280;52789;59.980;30.346;2023-04-02T06:46:46;101715.38;;;-1.19;93.93
66021;BME280;52789;59.980;30.346;2023-04-02T06:49:15;101717.03;;;-1.17;94.29
66021;BME280;52789;59.980;30.346;2023-04-02T06:51:41;101720.31;;;-1.12;93.55
66021;BME280;52789;59.980;30.346;2023-04-02T06:54:14;101730.38;;;-1.03;93.68
66021;BME280;52789;59.980;30.346;2023-04-02T06:56:47;101729.06;;;-0.93;93.28
66021;BME280;52789;59.980;30.346;2023-04-02T06:59:13;101747.13;;;-0.86;92.58
66021;BME280;52789;59.980;30.346;2023-04-02T07:01:40;101717.31;;;-0.82;92.99
66021;BME280;52789;59.980;30.346;2023-04-02T07:04:09;101728.28;;;-0.74;92.53
66021;BME280;52789;59.980;30.346;2023-04-02T07:06:35;101728.00;;;-0.68;92.21
66021;BME280;52789;59.980;30.346;2023-04-02T07:09:00;101731.13;;;-0.60;91.96
66021;BME280;52789;59.980;30.346;2023-04-02T07:11:25;101736.88;;;-0.52;91.85
66021;BME280;52789;59.980;30.346;2023-04-02T07:13:51;101736.19;;;-0.37;91.81
66021;BME280;52789;59.980;30.346;2023-04-02T07:16:17;101739.44;;;-0.32;90.71
66021;BME280;52789;59.980;30.346;2023-04-02T07:18:44;101741.28;;;-0.34;90.65
66021;BME280;52789;59.980;30.346;2023-04-02T07:21:09;101743.84;;;-0.32;91.02
66021;BME280;52789;59.980;30.346;2023-04-02T07:23:35;101740.91;;;-0.24;90.58
66021;BME280;52789;59.980;30.346;2023-04-02T07:26:00;101737.06;;;-0.17;90.10
66021;BME280;52789;59.980;30.346;2023-04-02T07:28:26;101748.94;;;-0.10;89.83
66021;BME280;52789;59.980;30.346;2023-04-02T07:30:52;101747.41;;;-0.14;89.00
66021;BME280;52789;59.980;30.346;2023-04-02T07:33:22;101754.31;;;-0.13;89.20
66021;BME280;52789;59.980;30.346;2023-04-02T07:35:48;101766.22;;;-0.06;89.53
66021;BME280;52789;59.980;30.346;2023-04-02T07:38:13;101768.91;;;0.11;88.25
66021;BME280;52789;59.980;30.346;2023-04-02T07:40:39;101771.97;;;0.02;87.52
66021;BME280;52789;59.980;30.346;2023-04-02T07:43:05;101765.16;;;-0.02;87.46
66021;BME280;52789;59.980;30.346;2023-04-02T07:45:31;101769.63;;;-0.04;87.86
66021;BME280;52789;59.980;30.346;2023-04-02T07:48:08;101775.84;;;0.12;87.71
66021;BME280;52789;59.980;30.346;2023-04-02T07:50:34;101774.56;;;0.21;87.38
66021;BME280;52789;59.980;30.346;2023-04-02T07:53:00;101777.50;;;0.34;86.98
66021;BME280;52789;59.980;30.346;2023-04-02T07:55:26;101774.94;;;0.32;85.65
66021;BME280;52789;59.980;30.346;2023-04-02T07:57:55;101771.03;;;0.41;85.19
66021;BME280;52789;59.980;30.346;2023-04-02T08:00:21;101775.09;;;0.65;85.46
66021;BME280;52789;59.980;30.346;2023-04-02T08:02:49;101777.72;;;0.82;84.52
66021;BME280;52789;59.980;30.346;2023-04-02T08:05:15;101772.59;;;0.98;84.40
66021;BME280;52789;59.980;30.346;2023-04-02T08:07:41;101786.25;;;1.22;84.04
66021;BME280;52789;59.980;30.346;2023-04-02T08:10:07;101791.03;;;1.31;82.19
66021;BME280;52789;59.980;30.346;2023-04-02T08:12:32;101802.22;;;1.35;82.79
66021;BME280;52789;59.980;30.346;2023-04-02T08:14:58;101796.41;;;1.11;81.01
66021;BME280;52789;59.980;30.346;2023-04-02T08:17:23;101796.56;;;0.90;81.63
66021;BME280;52789;59.980;30.346;2023-04-02T08:19:49;101803.69;;;0.88;81.44
66021;BME280;52789;59.980;30.346;2023-04-02T08:22:15;101799.25;;;0.72;80.99
66021;BME280;52789;59.980;30.346;2023-04-02T08:24:40;101795.25;;;0.46;81.50
66021;BME280;52789;59.980;30.346;2023-04-02T08:27:05;101808.41;;;0.44;81.79
66021;BME280;52789;59.980;30.346;2023-04-02T08:29:32;101811.25;;;0.40;81.14
66021;BME280;52789;59.980;30.346;2023-04-02T08:31:58;101804.22;;;0.59;81.67
66021;BME280;52789;59.980;30.346;2023-04-02T08:34:23;101808.53;;;0.96;79.95
66021;BME280;52789;59.980;30.346;2023-04-02T08:36:49;101812.94;;;1.13;78.39
66021;BME280;52789;59.980;30.346;2023-04-02T08:39:14;101827.13;;;1.09;77.39
66021;BME280;52789;59.980;30.346;2023-04-02T08:41:44;101809.84;;;1.05;78.62
66021;BME280;52789;59.980;30.346;2023-04-02T08:46:40;101823.06;;;0.84;79.08
66021;BME280;52789;59.980;30.346;2023-04-02T08:50:11;101825.38;;;0.73;79.55
66021;BME280;52789;59.980;30.346;2023-04-02T08:52:03;101832.19;;;0.77;79.84
66021;BME280;52789;59.980;30.346;2023-04-02T08:54:35;101840.78;;;0.62;80.37
66021;BME280;52789;59.980;30.346;2023-04-02T08:59:40;101829.53;;;0.60;80.70
66021;BME280;52789;59.980;30.346;2023-04-02T09:04:52;101833.72;;;0.81;80.00
66021;BME280;52789;59.980;30.346;2023-04-02T09:07:17;101853.84;;;0.81;80.25
66021;BME280;52789;59.980;30.346;2023-04-02T09:09:44;101852.84;;;0.83;80.31
66021;BME280;52789;59.980;30.346;2023-04-02T09:12:20;101842.72;;;0.95;80.60
66021;BME280;52789;59.980;30.346;2023-04-02T09:17:19;101855.25;;;1.41;80.25
66021;BME280;52789;59.980;30.346;2023-04-02T09:20:02;101865.75;;;1.41;76.59
66021;BME280;52789;59.980;30.346;2023-04-02T09:22:33;101884.44;;;1.18;76.89
66021;BME280;52789;59.980;30.346;2023-04-02T09:25:00;101868.34;;;1.07;77.67
66021;BME280;52789;59.980;30.346;2023-04-02T09:27:27;101879.09;;;1.19;78.84
66021;BME280;52789;59.980;30.346;2023-04-02T09:29:54;101867.44;;;1.42;78.60
66021;BME280;52789;59.980;30.346;2023-04-02T09:35:30;101881.78;;;1.70;77.41
66021;BME280;52789;59.980;30.346;2023-04-02T09:40:40;101894.94;;;1.52;77.68
66021;BME280;52789;59.980;30.346;2023-04-02T09:45:35;101904.84;;;1.47;77.95
66021;BME280;52789;59.980;30.346;2023-04-02T09:48:00;101927.47;;;1.50;78.04
66021;BME280;52789;59.980;30.346;2023-04-02T09:50:28;101912.31;;;1.55;78.28
66021;BME280;52789;59.980;30.346;2023-04-02T09:52:54;101909.78;;;1.53;77.40
66021;BME280;52789;59.980;30.346;2023-04-02T09:55:22;101915.63;;;1.59;76.61
66021;BME280;52789;59.980;30.346;2023-04-02T09:57:49;101919.34;;;1.54;76.05
66021;BME280;52789;59.980;30.346;2023-04-02T10:02:44;101919.34;;;1.89;76.13
66021;BME280;52789;59.980;30.346;2023-04-02T10:05:20;101925.34;;;2.08;76.05
66021;BME280;52789;59.980;30.346;2023-04-02T10:07:50;101918.75;;;2.17;76.00
66021;BME280;52789;59.980;30.346;2023-04-02T10:12:43;101930.38;;;2.13;76.14
66021;BME280;52789;59.980;30.346;2023-04-02T10:15:14;101928.09;;;2.23;75.70
66021;BME280;52789;59.980;30.346;2023-04-02T10:17:41;101925.91;;;2.31;75.97
66021;BME280;52789;59.980;30.346;2023-04-02T10:20:13;101936.97;;;2.37;75.68
66021;BME280;52789;59.980;30.346;2023-04-02T10:22:41;101933.31;;;2.40;75.45
66021;BME280;52789;59.980;30.346;2023-04-02T10:25:14;101949.13;;;2.23;76.55
66021;BME280;52789;59.980;30.346;2023-04-02T10:30:25;101936.13;;;2.37;76.16
66021;BME280;52789;59.980;30.346;2023-04-02T10:32:54;101940.13;;;2.44;75.47
66021;BME280;52789;59.980;30.346;2023-04-02T10:40:28;101952.59;;;2.56;76.20
66021;BME280;52789;59.980;30.346;2023-04-02T10:50:30;101965.53;;;2.10;76.37
66021;BME280;52789;59.980;30.346;2023-04-02T10:55:30;101965.47;;;2.45;76.60
66021;BME280;52789;59.980;30.346;2023-04-02T10:58:04;101972.47;;;2.62;75.57
66021;BME280;52789;59.980;30.346;2023-04-02T11:00:34;101971.03;;;2.72;76.34
66021;BME280;52789;59.980;30.346;2023-04-02T11:03:06;101973.00;;;2.68;75.75
66021;BME280;52789;59.980;30.346;2023-04-02T11:08:30;102000.56;;;2.61;76.23
66021;BME280;52789;59.980;30.346;2023-04-02T11:11:02;102005.03;;;2.59;75.70
66021;BME280;52789;59.980;30.346;2023-04-02T11:16:13;102010.00;;;2.65;77.14
66021;BME280;52789;59.980;30.346;2023-04-02T11:18:41;102004.66;;;2.83;76.30
66021;BME280;52789;59.980;30.346;2023-04-02T11:23:57;102007.63;;;2.76;75.82
66021;BME280;52789;59.980;30.346;2023-04-02T11:26:27;102016.94;;;2.66;75.27
66021;BME280;52789;59.980;30.346;2023-04-02T11:31:37;102009.59;;;2.56;76.16
66021;BME280;52789;59.980;30.346;2023-04-02T11:34:03;102015.78;;;2.55;75.49
66021;BME280;52789;59.980;30.346;2023-04-02T11:39:12;102005.50;;;2.83;75.35
66021;BME280;52789;59.980;30.346;2023-04-02T11:42:09;102030.38;;;2.77;74.65
66021;BME280;52789;59.980;30.346;2023-04-02T11:44:45;102050.47;;;2.45;74.41
66021;BME280;52789;59.980;30.346;2023-04-02T11:47:26;102030.16;;;2.32;74.88
66021;BME280;52789;59.980;30.346;2023-04-02T11:57:28;102034.59;;;2.30;76.57
66021;BME280;52789;59.980;30.346;2023-04-02T12:02:28;102033.41;;;1.49;77.76
66021;BME280;52789;59.980;30.346;2023-04-02T12:12:41;102046.44;;;2.21;75.40
66021;BME280;52789;59.980;30.346;2023-04-02T12:17:51;102052.25;;;2.28;75.57
66021;BME280;52789;59.980;30.346;2023-04-02T12:20:21;102050.25;;;2.33;74.46
66021;BME280;52789;59.980;30.346;2023-04-02T12:22:48;102048.72;;;2.11;75.16
66021;BME280;52789;59.980;30.346;2023-04-02T12:27:43;102054.41;;;1.85;75.00
66021;BME280;52789;59.980;30.346;2023-04-02T12:30:18;102055.47;;;1.98;75.68
66021;BME280;52789;59.980;30.346;2023-04-02T12:32:43;102051.19;;;2.14;73.97
66021;BME280;52789;59.980;30.346;2023-04-02T12:35:42;102051.47;;;2.43;73.14
66021;BME280;52789;59.980;30.346;2023-04-02T12:38:01;102057.94;;;2.70;71.95
66021;BME280;52789;59.980;30.346;2023-04-02T12:40:27;102061.19;;;2.58;72.25
66021;BME280;52789;59.980;30.346;2023-04-02T12:42:52;102056.16;;;2.54;70.84
66021;BME280;52789;59.980;30.346;2023-04-02T12:45:22;102071.28;;;2.33;71.24
66021;BME280;52789;59.980;30.346;2023-04-02T12:47:47;102069.88;;;2.26;72.62
66021;BME280;52789;59.980;30.346;2023-04-02T12:50:13;102080.31;;;2.27;72.55
66021;BME280;52789;59.980;30.346;2023-04-02T12:52:42;102091.53;;;2.13;72.85
66021;BME280;52789;59.980;30.346;2023-04-02T12:55:19;102077.59;;;2.11;70.77
66021;BME280;52789;59.980;30.346;2023-04-02T12:57:45;102078.63;;;2.09;70.62
66021;BME280;52789;59.980;30.346;2023-04-02T13:02:47;102090.84;;;2.10;71.55
66021;BME280;52789;59.980;30.346;2023-04-02T13:05:29;102098.78;;;2.08;71.37
66021;BME280;52789;59.980;30.346;2023-04-02T13:07:55;102090.97;;;2.07;71.73
66021;BME280;52789;59.980;30.346;2023-04-02T13:10:22;102094.47;;;2.07;71.79
66021;BME280;52789;59.980;30.346;2023-04-02T13:12:47;102096.47;;;2.20;71.87
66021;BME280;52789;59.980;30.346;2023-04-02T13:15:22;102093.81;;;2.02;70.41
66021;BME280;52789;59.980;30.346;2023-04-02T13:20:36;102104.19;;;2.05;72.55
66021;BME280;52789;59.980;30.346;2023-04-02T13:25:46;102104.38;;;2.37;71.80
66021;BME280;52789;59.980;30.346;2023-04-02T13:28:12;102095.41;;;2.41;70.91
66021;BME280;52789;59.980;30.346;2023-04-02T13:30:37;102104.13;;;2.41;71.92
66021;BME280;52789;59.980;30.346;2023-04-02T13:33:02;102105.97;;;2.57;72.63
66021;BME280;52789;59.980;30.346;2023-04-02T13:35:27;102111.78;;;2.63;70.64
66021;BME280;52789;59.980;30.346;2023-04-02T13:37:53;102112.84;;;2.59;71.40
66021;BME280;52789;59.980;30.346;2023-04-02T13:40:18;102110.53;;;2.53;69.80
66021;BME280;52789;59.980;30.346;2023-04-02T13:42:44;102119.22;;;2.38;69.56
66021;BME280;52789;59.980;30.346;2023-04-02T13:45:21;102117.56;;;2.18;71.15
66021;BME280;52789;59.980;30.346;2023-04-02T13:47:48;102109.69;;;2.18;70.01
66021;BME280;52789;59.980;30.346;2023-04-02T13:50:17;102121.34;;;2.30;70.13
66021;BME280;52789;59.980;30.346;2023-04-02T13:52:43;102117.59;;;2.35;69.52
66021;BME280;52789;59.980;30.346;2023-04-02T13:55:09;102123.88;;;2.33;69.24
66021;BME280;52789;59.980;30.346;2023-04-02T13:57:35;102127.66;;;2.44;69.66
66021;BME280;52789;59.980;30.346;2023-04-02T14:00:00;102130.88;;;2.49;69.25
66021;BME280;52789;59.980;30.346;2023-04-02T14:02:26;102130.81;;;2.34;67.98
66021;BME280;52789;59.980;30.346;2023-04-02T14:15:19;102153.78;;;1.94;68.77
66021;BME280;52789;59.980;30.346;2023-04-02T14:20:20;102154.69;;;1.93;69.66
66021;BME280;52789;59.980;30.346;2023-04-02T14:25:45;102149.97;;;1.64;70.13
66021;BME280;52789;59.980;30.346;2023-04-02T14:36:22;102156.63;;;1.33;69.58
66021;BME280;52789;59.980;30.346;2023-04-02T14:41:23;102162.50;;;1.38;71.30
66021;BME280;52789;59.980;30.346;2023-04-02T14:43:51;102171.69;;;1.48;70.88
66021;BME280;52789;59.980;30.346;2023-04-02T14:46:17;102180.06;;;1.57;70.12
66021;BME280;52789;59.980;30.346;2023-04-02T14:48:50;102175.66;;;1.76;69.39
66021;BME280;52789;59.980;30.346;2023-04-02T14:54:03;102179.47;;;2.06;69.87
66021;BME280;52789;59.980;30.346;2023-04-02T14:56:30;102194.03;;;2.13;68.85
66021;BME280;52789;59.980;30.346;2023-04-02T15:01:39;102191.97;;;2.01;68.58
66021;BME280;52789;59.980;30.346;2023-04-02T15:04:13;102212.44;;;1.76;69.58
66021;BME280;52789;59.980;30.346;2023-04-02T15:06:44;102204.97;;;1.48;69.79
66021;BME280;52789;59.980;30.346;2023-04-02T15:11:47;102204.94;;;1.29;70.26
66021;BME280;52789;59.980;30.346;2023-04-02T15:14:19;102206.13;;;1.22;70.59
66021;BME280;52789;59.980;30.346;2023-04-02T15:16:47;102202.97;;;1.14;70.14
66021;BME280;52789;59.980;30.346;2023-04-02T15:19:13;102204.94;;;1.09;70.05
66021;BME280;52789;59.980;30.346;2023-04-02T15:27:25;102213.53;;;0.92;71.57
66021;BME280;52789;59.980;30.346;2023-04-02T15:30:02;102218.94;;;0.89;71.70
66021;BME280;52789;59.980;30.346;2023-04-02T15:39:56;102227.59;;;0.91;71.94
66021;BME280;52789;59.980;30.346;2023-04-02T15:42:27;102226.78;;;0.89;71.45
66021;BME280;52789;59.980;30.346;2023-04-02T15:50:06;102239.09;;;0.67;72.01
66021;BME280;52789;59.980;30.346;2023-04-02T15:57:55;102244.22;;;0.48;72.19
66021;BME280;52789;59.980;30.346;2023-04-02T16:03:03;102254.81;;;0.45;72.41
66021;BME280;52789;59.980;30.346;2023-04-02T16:05:47;102249.91;;;0.37;72.60
66021;BME280;52789;59.980;30.346;2023-04-02T16:10:56;102255.31;;;0.33;73.39
66021;BME280;52789;59.980;30.346;2023-04-02T16:13:29;102256.06;;;0.36;73.33
66021;BME280;52789;59.980;30.346;2023-04-02T16:18:29;102248.91;;;0.40;73.52
66021;BME280;52789;59.980;30.346;2023-04-02T16:20:58;102260.31;;;0.39;74.30
66021;BME280;52789;59.980;30.346;2023-04-02T16:23:43;102262.03;;;0.40;73.26
66021;BME280;52789;59.980;30.346;2023-04-02T16:36:33;102277.31;;;0.50;74.65
66021;BME280;52789;59.980;30.346;2023-04-02T16:44:33;102285.53;;;0.41;75.38
66021;BME280;52789;59.980;30.346;2023-04-02T16:47:07;102284.69;;;0.41;75.65
66021;BME280;52789;59.980;30.346;2023-04-02T16:52:26;102291.03;;;0.35;76.57